Jeppener, Argentina
Current Conditions -  °F | °C
As of 2:00 PM on Friday 21 Nov 2014 (Local Time) from SAEZ Reporting Station
Light Rain Light Rain  
Wind Chill: 64°   Ceiling: 5000
Heat Index: 64°   Visibility: 5mi
Dew Point: 61°   Wind: 16mph
Humidity: 88%   Direction: 140°SE
Pressure: 29.91"   Gusts: 28mph
Location:  35.28°S, 58.2°W
Report Text: SAEZ 211700Z 14014G24KT 8000 -RA FEW020 OVC050 18/16 Q1013
Loading
Personal Weather Stations






























Interactive Weather Map New forecast layout! Learn more

10-Day Weather Forecast

Advertisements
Track Severe Weather on mobile